LRI582 HKJK-FMMI
Flight info
| Callsign | LRI582 |
|---|---|
| Flight time | N/A |
| Altitude | 33000 |
| Route | ATUDU1D GABSO UT913 KINAN UA401 TN TN2B |
| Aircraft | B77L/H-SDE1E2E3FGHIJ2J3J4J5M1RWXY/LB1D1 |
Departure
| Time | N/A |
|---|---|
| Airport | Jomo Kenyatta International Airport (HKJK) |
Arrival
| Time | 2026-04-30 18:30 |
|---|---|
| Airport | Ivato International Airport (FMMI) |
| Time | Latitude | Longitude | Altitude | Speed | Heading |
|---|---|---|---|---|---|
| 2026-04-30 17:39 | -13.46466 | 44.57259 | 32967 ft | 499 kts | 139° |
| 2026-04-30 17:42 | -13.73940 | 44.79166 | 32974 ft | 498 kts | 139° |
| 2026-04-30 17:43 | -13.87630 | 44.90107 | 32972 ft | 498 kts | 139° |
| 2026-04-30 17:44 | -14.04014 | 45.03223 | 32971 ft | 498 kts | 139° |
| 2026-04-30 17:47 | -14.28692 | 45.23024 | 32969 ft | 500 kts | 139° |
| 2026-04-30 17:48 | -14.47862 | 45.38446 | 32985 ft | 500 kts | 140° |
| 2026-04-30 17:50 | -14.69887 | 45.56207 | 32988 ft | 502 kts | 140° |
| 2026-04-30 17:52 | -14.86384 | 45.69540 | 32994 ft | 502 kts | 140° |
| 2026-04-30 17:54 | -15.11174 | 45.89626 | 32992 ft | 503 kts | 140° |
| 2026-04-30 17:56 | -15.33213 | 46.07536 | 32977 ft | 503 kts | 140° |
| 2026-04-30 17:58 | -15.49756 | 46.21012 | 32985 ft | 504 kts | 140° |
| 2026-04-30 18:00 | -15.73383 | 46.36297 | 32991 ft | 511 kts | 163° |
| 2026-04-30 18:01 | -15.90543 | 46.41192 | 32998 ft | 510 kts | 163° |
| 2026-04-30 18:02 | -16.11107 | 46.47098 | 33013 ft | 509 kts | 163° |
| 2026-04-30 18:04 | -16.31648 | 46.53017 | 33017 ft | 509 kts | 163° |
| 2026-04-30 18:06 | -16.59035 | 46.60932 | 33017 ft | 510 kts | 163° |
| 2026-04-30 18:08 | -16.83027 | 46.67886 | 33007 ft | 512 kts | 163° |
| 2026-04-30 18:10 | -17.10549 | 46.75885 | 33044 ft | 511 kts | 163° |
| 2026-04-30 18:11 | -17.34578 | 46.82890 | 33110 ft | 511 kts | 163° |
| 2026-04-30 18:12 | -17.44799 | 46.85875 | 32182 ft | 504 kts | 163° |
| 2026-04-30 18:13 | -17.51579 | 46.87857 | 30360 ft | 509 kts | 163° |
| 2026-04-30 18:13 | -17.60518 | 46.90472 | 29153 ft | 491 kts | 163° |
| 2026-04-30 18:14 | -17.68128 | 46.92701 | 27889 ft | 481 kts | 163° |
| 2026-04-30 18:15 | -17.77655 | 46.95494 | 26263 ft | 468 kts | 163° |
| 2026-04-30 18:15 | -17.86952 | 46.98223 | 24588 ft | 457 kts | 163° |
| 2026-04-30 18:16 | -17.93064 | 47.00018 | 23461 ft | 450 kts | 163° |
| 2026-04-30 18:16 | -17.99053 | 47.01780 | 22354 ft | 444 kts | 163° |
| 2026-04-30 18:17 | -18.01045 | 47.02366 | 21978 ft | 442 kts | 163° |
| 2026-04-30 18:17 | -18.04949 | 47.03515 | 21230 ft | 438 kts | 163° |
| 2026-04-30 18:17 | -18.10791 | 47.05236 | 20109 ft | 432 kts | 162° |
| 2026-04-30 18:18 | -18.13687 | 47.06089 | 19542 ft | 429 kts | 162° |
| 2026-04-30 18:18 | -18.16541 | 47.06930 | 18982 ft | 426 kts | 162° |
| 2026-04-30 18:18 | -18.19417 | 47.07778 | 18419 ft | 423 kts | 162° |
| 2026-04-30 18:18 | -18.22236 | 47.08610 | 17865 ft | 420 kts | 162° |
| 2026-04-30 18:19 | -18.25035 | 47.09436 | 17306 ft | 417 kts | 162° |
| 2026-04-30 18:19 | -18.27855 | 47.10268 | 16747 ft | 414 kts | 162° |
| 2026-04-30 18:19 | -18.30563 | 47.11245 | 16187 ft | 409 kts | 153° |
| 2026-04-30 18:19 | -18.32997 | 47.12670 | 15640 ft | 403 kts | 143° |
| 2026-04-30 18:20 | -18.35227 | 47.14425 | 15086 ft | 399 kts | 140° |
| 2026-04-30 18:20 | -18.37414 | 47.16219 | 14536 ft | 397 kts | 140° |
| 2026-04-30 18:20 | -18.39574 | 47.17999 | 13970 ft | 391 kts | 140° |
| 2026-04-30 18:20 | -18.41693 | 47.19749 | 13442 ft | 384 kts | 140° |
| 2026-04-30 18:21 | -18.43789 | 47.21482 | 12911 ft | 378 kts | 139° |
| 2026-04-30 18:21 | -18.45855 | 47.23192 | 12379 ft | 372 kts | 140° |
| 2026-04-30 18:21 | -18.47861 | 47.24855 | 11862 ft | 367 kts | 140° |
| 2026-04-30 18:21 | -18.49864 | 47.26516 | 11348 ft | 362 kts | 140° |
| 2026-04-30 18:22 | -18.51801 | 47.28124 | 11136 ft | 347 kts | 140° |
| 2026-04-30 18:22 | -18.55427 | 47.31133 | 10922 ft | 318 kts | 140° |
| 2026-04-30 18:22 | -18.57255 | 47.32356 | 10721 ft | 311 kts | 159° |
| 2026-04-30 18:23 | -18.59378 | 47.32557 | 10519 ft | 306 kts | 189° |
| 2026-04-30 18:23 | -18.61279 | 47.31604 | 10337 ft | 301 kts | 221° |
| 2026-04-30 18:23 | -18.62463 | 47.29845 | 10091 ft | 296 kts | 242° |
| 2026-04-30 18:23 | -18.63590 | 47.28043 | 9722 ft | 290 kts | 221° |
| 2026-04-30 18:24 | -18.66855 | 47.25729 | 9217 ft | 274 kts | 206° |
| 2026-04-30 18:24 | -18.68513 | 47.24863 | 9127 ft | 261 kts | 203° |
| 2026-04-30 18:24 | -18.70134 | 47.24131 | 9047 ft | 248 kts | 199° |
| 2026-04-30 18:25 | -18.71742 | 47.23522 | 8944 ft | 240 kts | 196° |
| 2026-04-30 18:25 | -18.74861 | 47.23632 | 8809 ft | 225 kts | 144° |
| 2026-04-30 18:25 | -18.75893 | 47.24810 | 8683 ft | 221 kts | 118° |
| 2026-04-30 18:26 | -18.76682 | 47.27909 | 7959 ft | 220 kts | 99° |
| 2026-04-30 18:26 | -18.76907 | 47.29508 | 7597 ft | 220 kts | 99° |
| 2026-04-30 18:26 | -18.77147 | 47.31110 | 7156 ft | 221 kts | 100° |
| 2026-04-30 18:27 | -18.77603 | 47.34071 | 6966 ft | 191 kts | 100° |
| 2026-04-30 18:27 | -18.77788 | 47.35503 | 6425 ft | 203 kts | 98° |
| 2026-04-30 18:28 | -18.78270 | 47.38437 | 5725 ft | 199 kts | 102° |
| 2026-04-30 18:28 | -18.78481 | 47.39862 | 5461 ft | 194 kts | 99° |
| 2026-04-30 18:28 | -18.78894 | 47.42599 | 4951 ft | 184 kts | 100° |
| 2026-04-30 18:29 | -18.79093 | 47.43898 | 4712 ft | 172 kts | 100° |
| 2026-04-30 18:29 | -18.79635 | 47.47461 | 4179 ft | 137 kts | 99° |
| 2026-04-30 18:30 | -18.79822 | 47.48759 | 4154 ft | 42 kts | 98° |
| 2026-04-30 18:30 | -18.79895 | 47.49156 | 4147 ft | 18 kts | 102° |
| 2026-04-30 18:31 | -18.79927 | 47.49258 | 4142 ft | 10 kts | 116° |
| 2026-04-30 18:31 | -18.79903 | 47.49239 | 4143 ft | 1 kts | 279° |
| 2026-04-30 18:32 | -18.79892 | 47.49188 | 4146 ft | 7 kts | 283° |
| 2026-04-30 18:32 | -18.79880 | 47.49120 | 4148 ft | 11 kts | 279° |
| 2026-04-30 18:32 | -18.79850 | 47.48922 | 4152 ft | 16 kts | 278° |
| 2026-04-30 18:33 | -18.79830 | 47.48784 | 4154 ft | 19 kts | 279° |
| 2026-04-30 18:33 | -18.79794 | 47.48561 | 4158 ft | 12 kts | 281° |
| 2026-04-30 18:33 | -18.79779 | 47.48484 | 4159 ft | 9 kts | 280° |
| 2026-04-30 18:34 | -18.79771 | 47.48421 | 4161 ft | 9 kts | 278° |
| 2026-04-30 18:34 | -18.79750 | 47.48261 | 4164 ft | 14 kts | 277° |
| 2026-04-30 18:34 | -18.79748 | 47.48158 | 4167 ft | 14 kts | 243° |
| 2026-04-30 18:35 | -18.79830 | 47.48112 | 4172 ft | 11 kts | 196° |
| 2026-04-30 18:35 | -18.79886 | 47.48066 | 4174 ft | 12 kts | 247° |
| 2026-04-30 18:35 | -18.79890 | 47.47961 | 4172 ft | 16 kts | 278° |
| 2026-04-30 18:36 | -18.79830 | 47.47706 | 4171 ft | 17 kts | 279° |
| 2026-04-30 18:36 | -18.79814 | 47.47589 | 4175 ft | 14 kts | 279° |
| 2026-04-30 18:36 | -18.79788 | 47.47403 | 4181 ft | 13 kts | 278° |
| 2026-04-30 18:37 | -18.79773 | 47.47313 | 4185 ft | 11 kts | 281° |
| 2026-04-30 18:37 | -18.79763 | 47.47247 | 4189 ft | 8 kts | 278° |
| 2026-04-30 18:37 | -18.79784 | 47.47201 | 4191 ft | 6 kts | 199° |
| 2026-04-30 18:37 | -18.79820 | 47.47197 | 4189 ft | 0 kts | 185° |
| 2026-04-30 18:38 | -18.79821 | 47.47197 | 4189 ft | 0 kts | 185° |
| 2026-04-30 18:38 | -18.79825 | 47.47197 | 4189 ft | 0 kts | 185° |